createdAt,value
2023-04-09T00:01:19.745Z,6.51
2023-04-09T00:06:19.672Z,6.38
2023-04-09T00:11:19.605Z,6.22
2023-04-09T00:16:19.562Z,6.09
2023-04-09T00:21:19.475Z,5.98
2023-04-09T00:26:19.397Z,5.97
2023-04-09T00:31:20.766Z,5.99
2023-04-09T00:36:19.262Z,5.98
2023-04-09T00:41:19.224Z,6.02
2023-04-09T00:46:19.255Z,5.94
2023-04-09T00:51:19.081Z,5.94
2023-04-09T00:56:19.013Z,6.02
2023-04-09T01:01:18.975Z,5.93
2023-04-09T01:06:18.863Z,6.01
2023-04-09T01:11:18.796Z,6.09
2023-04-09T01:16:18.759Z,6.12
2023-04-09T01:21:18.657Z,6.14
2023-04-09T01:26:18.578Z,6.17
2023-04-09T01:31:18.543Z,6.16
2023-04-09T01:36:18.447Z,6.19
2023-04-09T01:41:18.384Z,6.20
2023-04-09T01:46:18.361Z,6.16
2023-04-09T01:51:18.251Z,6.07
2023-04-09T01:56:18.171Z,6.05
2023-04-09T02:01:18.148Z,5.98
2023-04-09T02:06:18.046Z,5.97
2023-04-09T02:11:17.976Z,5.87
2023-04-09T02:16:18.056Z,5.80
2023-04-09T02:21:17.839Z,5.69
2023-04-09T02:26:17.780Z,5.53
2023-04-09T02:31:17.741Z,5.42
2023-04-09T02:36:17.656Z,5.32
2023-04-09T02:41:17.574Z,5.16
2023-04-09T02:46:17.546Z,5.10
2023-04-09T02:51:17.457Z,5.01
2023-04-09T02:56:17.364Z,4.86
2023-04-09T03:01:17.348Z,4.77
2023-04-09T03:06:17.233Z,4.66
2023-04-09T03:11:17.181Z,4.53
2023-04-09T03:16:17.187Z,4.34
2023-04-09T03:21:17.055Z,4.23
2023-04-09T03:26:16.978Z,4.17
2023-04-09T03:31:16.967Z,4.13
2023-04-09T03:36:16.875Z,4.07
2023-04-09T03:41:16.790Z,4.07
2023-04-09T03:46:16.742Z,3.97
2023-04-09T03:51:16.652Z,3.79
2023-04-09T03:56:16.581Z,3.64
2023-04-09T04:01:16.536Z,3.50
2023-04-09T04:06:16.454Z,3.46
2023-04-09T04:11:16.388Z,3.49
2023-04-09T04:16:16.369Z,3.57
2023-04-09T04:21:16.242Z,3.54
2023-04-09T04:26:16.177Z,3.52
2023-04-09T04:31:16.140Z,3.57
2023-04-09T04:36:16.050Z,3.62
2023-04-09T04:41:15.984Z,3.52
2023-04-09T04:46:15.972Z,3.52
2023-04-09T04:51:15.850Z,3.57
2023-04-09T04:56:15.773Z,3.72
2023-04-09T05:01:15.776Z,3.76
2023-04-09T05:06:15.644Z,3.80
2023-04-09T05:11:15.585Z,4.10
2023-04-09T05:16:15.525Z,4.48
2023-04-09T05:21:15.456Z,4.68
2023-04-09T05:26:15.404Z,4.85
2023-04-09T05:31:15.367Z,5.06
2023-04-09T05:36:15.256Z,5.32
2023-04-09T05:41:15.191Z,5.83
2023-04-09T05:46:15.140Z,6.43
2023-04-09T05:51:15.182Z,6.91
2023-04-09T05:56:14.997Z,7.24
2023-04-09T06:01:14.921Z,7.78
2023-04-09T06:06:14.864Z,8.15
2023-04-09T06:11:14.802Z,8.60
2023-04-09T06:16:14.792Z,8.67
2023-04-09T06:21:14.667Z,8.12
2023-04-09T06:26:14.600Z,8.48
2023-04-09T06:31:14.620Z,9.24
2023-04-09T06:36:14.490Z,10.26
2023-04-09T06:41:14.410Z,11.01
2023-04-09T06:46:14.343Z,11.75
2023-04-09T06:51:14.250Z,12.45
2023-04-09T06:56:14.202Z,13.36
2023-04-09T07:01:14.121Z,14.50
2023-04-09T07:06:14.064Z,15.91
2023-04-09T07:11:13.984Z,15.94
2023-04-09T07:16:13.959Z,16.52
2023-04-09T07:21:13.852Z,17.67
2023-04-09T07:26:13.797Z,17.86
2023-04-09T07:31:13.764Z,17.97
2023-04-09T07:36:13.774Z,17.66
2023-04-09T07:41:13.597Z,17.91
2023-04-09T07:46:13.536Z,16.96
2023-04-09T07:51:13.461Z,17.54
2023-04-09T07:56:13.402Z,18.24
2023-04-09T08:01:13.333Z,18.10
2023-04-09T08:06:13.266Z,18.10
2023-04-09T08:11:13.188Z,18.17
2023-04-09T08:16:13.167Z,17.79
2023-04-09T08:21:13.054Z,16.94
2023-04-09T08:26:13.009Z,16.53
2023-04-09T08:31:12.920Z,15.67
2023-04-09T08:36:12.900Z,15.54
2023-04-09T08:41:14.095Z,15.32
2023-04-09T08:46:12.844Z,14.93
2023-04-09T08:51:12.646Z,15.73
2023-04-09T08:56:12.586Z,15.79
2023-04-09T09:01:13.623Z,16.67
2023-04-09T09:06:12.451Z,16.71
2023-04-09T09:11:12.385Z,17.27
2023-04-09T09:16:12.366Z,16.90
2023-04-09T09:21:12.243Z,16.41
2023-04-09T09:26:12.197Z,15.58
2023-04-09T09:31:12.182Z,15.39
2023-04-09T09:36:12.217Z,17.05
2023-04-09T09:41:11.986Z,17.60
2023-04-09T09:46:12.008Z,17.84
2023-04-09T09:51:11.859Z,19.10
2023-04-09T09:56:11.810Z,18.96
2023-04-09T10:01:11.743Z,19.13
2023-04-09T10:06:11.669Z,19.50
2023-04-09T10:11:11.585Z,19.40
2023-04-09T10:16:11.614Z,20.00
2023-04-09T10:21:11.442Z,19.44
2023-04-09T10:26:11.380Z,18.95
2023-04-09T10:31:11.354Z,19.55
2023-04-09T10:36:11.291Z,19.92
2023-04-09T10:41:11.185Z,19.86
2023-04-09T10:46:11.141Z,19.43
2023-04-09T10:51:11.056Z,18.99
2023-04-09T10:56:10.996Z,18.65
2023-04-09T11:01:10.919Z,18.60
2023-04-09T11:06:10.860Z,20.25
2023-04-09T11:11:10.784Z,20.98
2023-04-09T11:16:10.777Z,20.06
2023-04-09T11:21:10.656Z,19.85
2023-04-09T11:26:10.597Z,19.58
2023-04-09T11:31:10.640Z,19.73
2023-04-09T11:36:10.558Z,19.48
2023-04-09T11:41:10.376Z,18.78
2023-04-09T11:46:10.333Z,18.27
2023-04-09T11:51:10.255Z,17.75
2023-04-09T11:56:10.203Z,16.93
2023-04-09T12:01:10.110Z,16.80
2023-04-09T12:06:10.057Z,17.16
2023-04-09T12:11:09.977Z,16.74
2023-04-09T12:16:09.935Z,16.59
2023-04-09T12:21:09.846Z,17.01
2023-04-09T12:26:09.791Z,16.73
2023-04-09T12:31:09.713Z,16.57
2023-04-09T12:36:09.682Z,16.02
2023-04-09T12:41:09.596Z,15.32
2023-04-09T12:46:09.598Z,15.18
2023-04-09T12:51:09.442Z,15.32
2023-04-09T12:56:09.391Z,14.48
2023-04-09T13:01:09.406Z,14.37
2023-04-09T13:06:09.253Z,14.48
2023-04-09T13:11:09.173Z,14.59
2023-04-09T13:16:09.131Z,14.72
2023-04-09T13:21:09.034Z,14.78
2023-04-09T13:26:08.983Z,15.14
2023-04-09T13:31:08.950Z,15.42
2023-04-09T13:36:08.867Z,15.41
2023-04-09T13:41:08.780Z,15.06
2023-04-09T13:46:08.733Z,14.68
2023-04-09T13:51:08.645Z,14.72
2023-04-09T13:56:08.578Z,14.66
2023-04-09T14:01:08.554Z,14.43
2023-04-09T14:06:08.465Z,14.33
2023-04-09T14:11:08.370Z,14.26
2023-04-09T14:16:08.324Z,14.28
2023-04-09T14:21:10.129Z,14.40
2023-04-09T14:26:08.184Z,14.51
2023-04-09T14:31:08.189Z,14.63
2023-04-09T14:36:08.093Z,14.66
2023-04-09T14:41:07.980Z,14.59
2023-04-09T14:46:07.970Z,14.50
2023-04-09T14:51:07.862Z,14.40
2023-04-09T14:56:07.795Z,14.37
2023-04-09T15:01:07.755Z,14.29
2023-04-09T15:06:07.676Z,14.40
2023-04-09T15:11:07.604Z,14.41
2023-04-09T15:16:07.563Z,14.43
2023-04-09T15:21:07.477Z,14.63
2023-04-09T15:26:07.402Z,14.44
2023-04-09T15:31:07.353Z,14.44
2023-04-09T15:36:07.293Z,14.30
2023-04-09T15:41:07.432Z,14.32
2023-04-09T15:46:07.200Z,14.30
2023-04-09T15:51:07.100Z,14.26
2023-04-09T15:56:07.016Z,14.20
2023-04-09T16:01:07.014Z,14.22
2023-04-09T16:06:06.896Z,14.20
2023-04-09T16:11:06.846Z,14.23
2023-04-09T16:16:06.999Z,14.20
2023-04-09T16:21:06.695Z,14.17
2023-04-09T16:26:06.628Z,14.15
2023-04-09T16:31:06.573Z,14.14
2023-04-09T16:36:06.530Z,14.12
2023-04-09T16:41:06.448Z,14.07
2023-04-09T16:46:06.401Z,14.03
2023-04-09T16:51:06.286Z,13.99
2023-04-09T16:56:06.225Z,13.99
2023-04-09T17:01:06.156Z,13.98
2023-04-09T17:06:06.105Z,13.92
2023-04-09T17:11:06.021Z,13.88
2023-04-09T17:16:06.318Z,13.82
2023-04-09T17:21:05.887Z,13.73
2023-04-09T17:26:05.832Z,13.69
2023-04-09T17:31:05.790Z,13.59
2023-04-09T17:36:05.749Z,13.55
2023-04-09T17:41:07.374Z,13.51
2023-04-09T17:46:05.651Z,13.41
2023-04-09T17:51:05.510Z,13.33
2023-04-09T17:56:05.448Z,13.22
2023-04-09T18:01:05.471Z,13.12
2023-04-09T18:06:05.306Z,12.98
2023-04-09T18:11:12.894Z,12.86
2023-04-09T18:16:05.198Z,12.80
2023-04-09T18:21:05.097Z,12.70
2023-04-09T18:26:05.066Z,12.57
2023-04-09T18:31:04.992Z,12.44
2023-04-09T18:36:04.956Z,12.23
2023-04-09T18:41:04.833Z,11.98
2023-04-09T18:46:04.818Z,11.72
2023-04-09T18:51:04.692Z,11.47
2023-04-09T18:56:04.639Z,11.26
2023-04-09T19:01:04.555Z,11.11
2023-04-09T19:06:04.498Z,10.93
2023-04-09T19:11:04.425Z,10.78
2023-04-09T19:16:04.431Z,10.56
2023-04-09T19:21:04.292Z,10.34
2023-04-09T19:26:04.246Z,10.13
2023-04-09T19:31:04.188Z,9.94
2023-04-09T19:36:04.149Z,9.75
2023-04-09T19:41:04.027Z,9.71
2023-04-09T19:46:03.979Z,9.64
2023-04-09T19:51:03.939Z,9.45
2023-04-09T19:56:03.941Z,9.39
2023-04-09T20:01:03.996Z,9.24
2023-04-09T20:06:03.945Z,9.07
2023-04-09T20:11:03.626Z,9.07
2023-04-09T20:16:03.604Z,8.92
2023-04-09T20:21:03.493Z,9.07
2023-04-09T20:26:03.428Z,9.21
2023-04-09T20:31:03.359Z,8.99
2023-04-09T20:36:03.345Z,9.06
2023-04-09T20:41:03.237Z,9.28
2023-04-09T20:46:03.222Z,9.04
2023-04-09T20:51:03.098Z,8.78
2023-04-09T20:56:03.055Z,8.63
2023-04-09T21:01:02.962Z,8.46
2023-04-09T21:06:02.936Z,8.25
2023-04-09T21:11:02.819Z,8.15
2023-04-09T21:16:02.775Z,8.09
2023-04-09T21:21:02.694Z,7.99
2023-04-09T21:26:02.645Z,7.90
2023-04-09T21:31:02.624Z,7.72
2023-04-09T21:36:02.532Z,7.60
2023-04-09T21:41:02.451Z,7.72
2023-04-09T21:46:02.435Z,7.90
2023-04-09T21:51:02.304Z,7.94
2023-04-09T21:56:04.672Z,7.87
2023-04-09T22:01:02.255Z,7.76
2023-04-09T22:06:02.147Z,7.66
2023-04-09T22:11:02.036Z,7.54
2023-04-09T22:16:02.046Z,7.47
2023-04-09T22:21:01.909Z,7.33
2023-04-09T22:26:01.870Z,7.17
2023-04-09T22:31:01.818Z,7.05
2023-04-09T22:36:01.775Z,6.96
2023-04-09T22:41:01.631Z,6.86
2023-04-09T22:46:01.647Z,6.78
2023-04-09T22:51:01.500Z,6.74
2023-04-09T22:56:01.461Z,6.69
2023-04-09T23:01:01.365Z,6.55
2023-04-09T23:06:01.314Z,6.34
2023-04-09T23:11:01.236Z,6.17
2023-04-09T23:16:01.221Z,6.16
2023-04-09T23:21:01.114Z,6.17
2023-04-09T23:26:01.037Z,6.16
2023-04-09T23:31:01.016Z,6.19
2023-04-09T23:36:01.183Z,6.17
2023-04-09T23:41:00.843Z,6.14
2023-04-09T23:46:00.769Z,6.02
2023-04-09T23:51:00.699Z,5.91
2023-04-09T23:56:00.697Z,5.84
